createdAt,value
2018-01-15T00:02:26.123Z,90.60
2018-01-15T00:04:53.571Z,90.70
2018-01-15T00:07:21.751Z,90.70
2018-01-15T00:09:49.203Z,90.90
2018-01-15T00:12:16.670Z,90.80
2018-01-15T00:14:44.127Z,90.80
2018-01-15T00:17:11.583Z,90.90
2018-01-15T00:19:39.062Z,90.80
2018-01-15T00:22:07.276Z,90.70
2018-01-15T00:24:34.727Z,90.70
2018-01-15T00:27:02.204Z,90.70
2018-01-15T00:29:29.684Z,90.70
2018-01-15T00:31:57.140Z,90.80
2018-01-15T00:34:24.592Z,90.60
2018-01-15T00:36:52.052Z,90.60
2018-01-15T00:39:19.515Z,90.50
2018-01-15T00:41:47.760Z,90.40
2018-01-15T00:44:15.228Z,90.50
2018-01-15T00:46:42.701Z,90.40
2018-01-15T00:49:10.931Z,90.50
2018-01-15T00:51:38.399Z,90.40
2018-01-15T00:54:05.858Z,90.70
2018-01-15T00:56:33.327Z,90.40
2018-01-15T00:59:00.784Z,90.40
2018-01-15T01:01:28.239Z,90.50
2018-01-15T01:03:55.708Z,90.50
2018-01-15T01:06:23.163Z,90.60
2018-01-15T01:08:50.627Z,90.60
2018-01-15T01:11:18.846Z,90.70
2018-01-15T01:13:46.306Z,90.70
2018-01-15T01:16:13.767Z,90.70
2018-01-15T01:18:41.255Z,90.40
2018-01-15T01:21:08.717Z,90.70
2018-01-15T01:23:36.176Z,90.60
2018-01-15T01:26:03.648Z,90.50
2018-01-15T01:28:31.895Z,90.40
2018-01-15T01:30:59.361Z,90.40
2018-01-15T01:33:26.819Z,90.40
2018-01-15T01:35:55.043Z,90.70
2018-01-15T01:38:22.503Z,90.70
2018-01-15T01:40:49.959Z,90.70
2018-01-15T01:43:17.434Z,90.70
2018-01-15T01:45:44.899Z,90.60
2018-01-15T01:48:12.363Z,90.60
2018-01-15T01:50:39.818Z,90.90
2018-01-15T01:53:07.289Z,90.60
2018-01-15T01:55:34.740Z,90.90
2018-01-15T01:58:02.216Z,90.60
2018-01-15T02:00:30.442Z,90.50
2018-01-15T02:02:57.906Z,90.50
2018-01-15T02:05:25.376Z,90.40
2018-01-15T02:07:52.841Z,90.40
2018-01-15T02:10:20.295Z,90.40
2018-01-15T02:12:47.763Z,90.50
2018-01-15T02:15:15.984Z,90.60
2018-01-15T02:17:43.447Z,90.50
2018-01-15T02:20:10.911Z,90.50
2018-01-15T02:22:38.372Z,90.50
2018-01-15T02:25:05.839Z,90.60
2018-01-15T02:27:33.299Z,90.40
2018-01-15T02:30:00.767Z,90.50
2018-01-15T02:32:29.509Z,90.70
2018-01-15T02:34:56.967Z,90.50
2018-01-15T02:37:24.455Z,90.40
2018-01-15T02:39:51.924Z,90.60
2018-01-15T02:42:20.153Z,90.30
2018-01-15T02:44:47.613Z,90.30
2018-01-15T02:47:15.108Z,90.30
2018-01-15T02:49:42.564Z,90.40
2018-01-15T02:52:10.786Z,90.50
2018-01-15T02:54:38.272Z,90.30
2018-01-15T02:57:05.743Z,90.60
2018-01-15T02:59:33.215Z,90.60
2018-01-15T03:02:01.435Z,90.30
2018-01-15T03:04:28.895Z,90.30
2018-01-15T03:06:56.359Z,90.30
2018-01-15T03:09:23.827Z,90.30
2018-01-15T03:11:51.295Z,90.20
2018-01-15T03:14:18.758Z,90.20
2018-01-15T03:16:46.215Z,90.20
2018-01-15T03:19:13.674Z,90.20
2018-01-15T03:21:41.131Z,90.30
2018-01-15T03:24:08.614Z,90.40
2018-01-15T03:26:36.072Z,90.50
2018-01-15T03:29:03.543Z,90.60
2018-01-15T03:31:31.016Z,90.30
2018-01-15T03:33:58.487Z,90.40
2018-01-15T03:36:25.957Z,90.20
2018-01-15T03:38:53.416Z,90.30
2018-01-15T03:41:20.878Z,90.40
2018-01-15T03:43:48.338Z,90.50
2018-01-15T03:46:15.804Z,90.50
2018-01-15T03:48:44.031Z,90.30
2018-01-15T03:51:11.498Z,90.40
2018-01-15T03:53:38.979Z,90.20
2018-01-15T03:56:06.447Z,90.30
2018-01-15T03:58:34.670Z,90.30
2018-01-15T04:01:02.133Z,90.30
2018-01-15T04:03:29.603Z,90.30
2018-01-15T04:05:57.071Z,90.30
2018-01-15T04:08:24.543Z,90.40
2018-01-15T04:10:52.025Z,90.50
2018-01-15T04:13:19.493Z,90.30
2018-01-15T04:15:46.967Z,90.30
2018-01-15T04:18:14.446Z,90.60
2018-01-15T04:20:41.925Z,90.50
2018-01-15T04:23:09.387Z,90.30
2018-01-15T04:25:37.627Z,89.30
2018-01-15T04:28:05.083Z,89.30
2018-01-15T04:30:32.557Z,89.30
2018-01-15T04:33:00.008Z,89.50
2018-01-15T04:35:27.488Z,89.70
2018-01-15T04:37:55.714Z,89.30
2018-01-15T04:40:23.199Z,89.30
2018-01-15T04:42:50.663Z,89.00
2018-01-15T04:45:18.119Z,89.20
2018-01-15T04:47:45.583Z,89.60
2018-01-15T04:50:13.803Z,89.40
2018-01-15T04:52:41.272Z,89.40
2018-01-15T04:55:08.727Z,89.60
2018-01-15T04:57:36.191Z,89.40
2018-01-15T05:00:03.655Z,88.50
2018-01-15T05:02:31.124Z,88.00
2018-01-15T05:04:58.575Z,88.00
2018-01-15T05:07:26.039Z,87.90
2018-01-15T05:09:54.003Z,87.70
2018-01-15T05:12:21.467Z,87.90
2018-01-15T05:14:48.927Z,87.40
2018-01-15T05:17:16.385Z,87.20
2018-01-15T05:19:44.612Z,86.50
2018-01-15T05:22:12.107Z,86.30
2018-01-15T05:24:39.592Z,85.70
2018-01-15T05:27:07.059Z,85.50
2018-01-15T05:29:34.514Z,85.40
2018-01-15T05:32:01.967Z,85.30
2018-01-15T05:34:29.422Z,86.30
2018-01-15T05:36:56.890Z,85.40
2018-01-15T05:39:24.338Z,85.70
2018-01-15T05:41:51.810Z,86.10
2018-01-15T05:44:19.267Z,86.00
2018-01-15T05:46:46.731Z,86.10
2018-01-15T05:49:14.188Z,86.30
2018-01-15T05:51:41.639Z,86.30
2018-01-15T05:54:09.103Z,86.10
2018-01-15T05:56:36.564Z,85.30
2018-01-15T05:59:04.032Z,84.90
2018-01-15T06:01:31.484Z,84.40
2018-01-15T06:03:58.956Z,84.20
2018-01-15T06:06:26.415Z,84.10
2018-01-15T06:08:53.867Z,83.90
2018-01-15T06:11:21.322Z,84.00
2018-01-15T06:13:48.779Z,84.10
2018-01-15T06:16:16.232Z,83.60
2018-01-15T06:18:43.696Z,83.70
2018-01-15T06:21:11.148Z,83.30
2018-01-15T06:23:38.607Z,83.20
2018-01-15T06:26:06.064Z,83.30
2018-01-15T06:28:33.528Z,83.10
2018-01-15T06:31:00.979Z,83.20
2018-01-15T06:33:28.439Z,83.10
2018-01-15T06:35:55.894Z,83.80
2018-01-15T06:38:23.351Z,83.00
2018-01-15T06:40:50.799Z,82.90
2018-01-15T06:43:18.267Z,82.90
2018-01-15T06:45:46.662Z,82.90
2018-01-15T06:48:14.883Z,82.80
2018-01-15T06:50:42.348Z,82.70
2018-01-15T06:53:09.803Z,82.60
2018-01-15T06:55:37.255Z,82.40
2018-01-15T06:58:04.715Z,82.40
2018-01-15T07:00:32.172Z,82.30
2018-01-15T07:02:59.631Z,82.30
2018-01-15T07:05:27.108Z,82.10
2018-01-15T07:07:54.760Z,81.70
2018-01-15T07:10:22.216Z,81.70
2018-01-15T07:12:49.666Z,81.50
2018-01-15T07:15:17.128Z,81.60
2018-01-15T07:17:44.607Z,82.00
2018-01-15T07:20:12.847Z,82.50
2018-01-15T07:22:40.304Z,82.40
2018-01-15T07:25:07.771Z,82.40
2018-01-15T07:27:35.228Z,82.70
2018-01-15T07:30:02.691Z,82.40
2018-01-15T07:32:30.143Z,82.30
2018-01-15T07:34:57.608Z,82.30
2018-01-15T07:37:25.069Z,82.20
2018-01-15T07:39:52.513Z,82.70
2018-01-15T07:42:19.967Z,81.70
2018-01-15T07:44:47.429Z,80.80
2018-01-15T07:47:14.884Z,81.30
2018-01-15T07:49:42.339Z,81.10
2018-01-15T07:52:09.792Z,80.80
2018-01-15T07:54:37.247Z,80.80
2018-01-15T07:57:04.703Z,80.30
2018-01-15T07:59:32.170Z,80.80
2018-01-15T08:01:59.627Z,79.70
2018-01-15T08:04:27.087Z,79.60
2018-01-15T08:06:54.539Z,79.50
2018-01-15T08:09:21.991Z,79.50
2018-01-15T08:11:49.451Z,79.70
2018-01-15T08:14:16.908Z,79.10
2018-01-15T08:16:44.364Z,79.10
2018-01-15T08:19:11.812Z,80.50
2018-01-15T08:21:39.271Z,80.30
2018-01-15T08:24:06.723Z,80.60
2018-01-15T08:26:34.187Z,81.30
2018-01-15T08:29:01.642Z,81.20
2018-01-15T08:31:29.095Z,81.00
2018-01-15T08:33:56.548Z,80.90
2018-01-15T08:36:24.012Z,79.30
2018-01-15T08:38:51.462Z,78.80
2018-01-15T08:41:18.922Z,77.70
2018-01-15T08:43:46.374Z,77.40
2018-01-15T08:46:13.841Z,76.10
2018-01-15T08:48:41.297Z,76.00
2018-01-15T08:51:08.764Z,75.30
2018-01-15T08:53:36.977Z,75.20
2018-01-15T08:56:04.434Z,75.20
2018-01-15T08:58:31.891Z,75.90
2018-01-15T09:00:59.361Z,75.50
2018-01-15T09:03:26.803Z,74.40
2018-01-15T09:05:54.259Z,74.50
2018-01-15T09:08:21.711Z,74.10
2018-01-15T09:10:49.172Z,73.20
2018-01-15T09:13:16.634Z,73.20
2018-01-15T09:15:44.091Z,72.10
2018-01-15T09:18:11.544Z,70.90
2018-01-15T09:20:39.011Z,69.60
2018-01-15T09:23:06.465Z,69.10
2018-01-15T09:25:33.914Z,70.40
2018-01-15T09:28:01.375Z,69.10
2018-01-15T09:30:28.894Z,70.30
2018-01-15T09:32:57.127Z,70.40
2018-01-15T09:35:24.589Z,70.40
2018-01-15T09:37:52.071Z,70.40
2018-01-15T09:40:19.503Z,69.30
2018-01-15T09:42:46.962Z,68.80
2018-01-15T09:45:14.406Z,68.10
2018-01-15T09:47:41.863Z,68.00
2018-01-15T09:50:09.320Z,68.40
2018-01-15T09:52:36.783Z,67.70
2018-01-15T09:55:04.250Z,68.40
2018-01-15T09:57:31.711Z,68.70
2018-01-15T09:59:59.181Z,68.30
2018-01-15T10:02:26.647Z,68.70
2018-01-15T10:04:54.100Z,67.80
2018-01-15T10:07:21.550Z,66.70
2018-01-15T10:09:49.012Z,67.30
2018-01-15T10:12:16.463Z,67.70
2018-01-15T10:14:43.924Z,67.70
2018-01-15T10:17:11.374Z,67.40
2018-01-15T10:19:38.835Z,67.80
2018-01-15T10:22:06.278Z,67.10
2018-01-15T10:24:33.738Z,66.70
2018-01-15T10:27:01.221Z,67.00
2018-01-15T10:29:28.667Z,69.00
2018-01-15T10:31:56.130Z,69.50
2018-01-15T10:34:23.620Z,68.30
2018-01-15T10:36:53.027Z,67.30
2018-01-15T10:39:20.520Z,66.70
2018-01-15T10:41:47.996Z,65.10
2018-01-15T10:44:15.437Z,65.40
2018-01-15T10:46:42.891Z,65.20
2018-01-15T10:49:11.169Z,65.50
2018-01-15T10:51:38.619Z,65.20
2018-01-15T10:54:06.067Z,65.70
2018-01-15T10:56:33.569Z,65.50
2018-01-15T10:59:01.011Z,65.70
2018-01-15T11:01:28.474Z,64.70
2018-01-15T11:03:55.931Z,64.30
2018-01-15T11:06:23.400Z,64.00
2018-01-15T11:08:50.846Z,64.70
2018-01-15T11:11:18.304Z,63.90
2018-01-15T11:13:45.771Z,64.90
2018-01-15T11:16:13.225Z,63.70
2018-01-15T11:18:40.683Z,63.50
2018-01-15T11:21:08.127Z,63.30
2018-01-15T11:23:35.587Z,62.90
2018-01-15T11:26:03.055Z,63.00
2018-01-15T11:28:30.522Z,62.50
2018-01-15T11:30:58.044Z,62.90
2018-01-15T11:33:25.503Z,63.70
2018-01-15T11:35:53.098Z,62.90
2018-01-15T11:38:21.315Z,63.10
2018-01-15T11:40:48.776Z,62.90
2018-01-15T11:43:16.252Z,63.50
2018-01-15T11:45:43.734Z,63.60
2018-01-15T11:48:11.195Z,63.70
2018-01-15T11:50:38.655Z,64.10
2018-01-15T11:53:06.879Z,64.30
2018-01-15T11:55:34.331Z,64.30
2018-01-15T11:58:01.795Z,64.30
2018-01-15T12:00:29.818Z,64.10
2018-01-15T12:02:58.038Z,64.30
2018-01-15T12:05:25.486Z,64.30
2018-01-15T12:07:52.948Z,64.30
2018-01-15T12:10:20.403Z,65.00
2018-01-15T12:12:47.853Z,64.60
2018-01-15T12:15:15.312Z,64.40
2018-01-15T12:17:42.754Z,64.50
2018-01-15T12:20:10.211Z,64.40
2018-01-15T12:22:37.678Z,64.20
2018-01-15T12:25:05.116Z,64.40
2018-01-15T12:27:32.623Z,64.80
2018-01-15T12:30:00.126Z,64.50
2018-01-15T12:32:27.534Z,64.80
2018-01-15T12:34:54.992Z,64.90
2018-01-15T12:37:22.452Z,64.60
2018-01-15T12:39:49.921Z,65.00
2018-01-15T12:42:17.367Z,64.50
2018-01-15T12:44:44.836Z,64.20
2018-01-15T12:47:12.287Z,64.00
2018-01-15T12:49:39.743Z,63.40
2018-01-15T12:52:07.187Z,63.20
2018-01-15T12:54:34.660Z,63.50
2018-01-15T12:57:02.099Z,63.50
2018-01-15T12:59:29.568Z,63.50
2018-01-15T13:01:57.023Z,63.80
2018-01-15T13:04:24.647Z,64.20
2018-01-15T13:06:56.067Z,63.00
2018-01-15T13:09:24.279Z,62.30
2018-01-15T13:11:51.753Z,62.30
2018-01-15T13:14:19.206Z,62.00
2018-01-15T13:16:46.658Z,62.70
2018-01-15T13:19:14.103Z,62.90
2018-01-15T13:21:42.211Z,63.50
2018-01-15T13:24:09.663Z,64.30
2018-01-15T13:26:37.121Z,64.60
2018-01-15T13:29:04.567Z,65.40
2018-01-15T13:31:32.019Z,65.40
2018-01-15T13:33:59.471Z,65.60
2018-01-15T13:36:26.929Z,65.70
2018-01-15T13:38:54.380Z,65.70
2018-01-15T13:41:21.839Z,66.10
2018-01-15T13:43:49.306Z,66.10
2018-01-15T13:46:16.806Z,65.90
2018-01-15T13:48:44.246Z,65.80
2018-01-15T13:51:12.864Z,66.20
2018-01-15T13:53:40.303Z,65.70
2018-01-15T13:56:07.754Z,66.30
2018-01-15T13:58:35.967Z,66.50
2018-01-15T14:01:04.415Z,66.40
2018-01-15T14:03:32.366Z,66.20
2018-01-15T14:06:03.523Z,66.10
2018-01-15T14:08:31.107Z,65.60
2018-01-15T14:10:58.564Z,65.70
2018-01-15T14:13:26.028Z,65.10
2018-01-15T14:15:53.477Z,65.40
2018-01-15T14:18:21.292Z,65.70
2018-01-15T14:20:48.763Z,66.00
2018-01-15T14:23:16.975Z,65.50
2018-01-15T14:25:44.428Z,65.50
2018-01-15T14:28:11.880Z,65.00
2018-01-15T14:30:39.338Z,65.80
2018-01-15T14:33:06.793Z,65.50
2018-01-15T14:35:34.242Z,65.50
2018-01-15T14:38:01.695Z,65.50
2018-01-15T14:40:29.136Z,65.40
2018-01-15T14:42:56.614Z,65.70
2018-01-15T14:45:24.079Z,66.10
2018-01-15T14:47:51.535Z,66.10
2018-01-15T14:50:18.982Z,66.60
2018-01-15T14:52:46.443Z,66.70
2018-01-15T14:55:13.899Z,67.10
2018-01-15T14:57:41.351Z,67.00
2018-01-15T15:00:08.812Z,67.00
2018-01-15T15:02:36.267Z,67.60
2018-01-15T15:05:03.723Z,67.70
2018-01-15T15:07:31.179Z,67.50
2018-01-15T15:09:58.631Z,67.20
2018-01-15T15:12:26.105Z,67.90
2018-01-15T15:14:53.543Z,67.20
2018-01-15T15:17:21.402Z,66.20
2018-01-15T15:19:48.843Z,66.70
2018-01-15T15:22:16.295Z,67.20
2018-01-15T15:24:44.523Z,67.20
2018-01-15T15:27:11.975Z,67.20
2018-01-15T15:29:39.431Z,67.10
2018-01-15T15:32:06.891Z,67.30
2018-01-15T15:34:34.348Z,67.40
2018-01-15T15:37:01.808Z,67.50
2018-01-15T15:39:29.266Z,67.80
2018-01-15T15:41:56.717Z,67.90
2018-01-15T15:44:24.182Z,68.10
2018-01-15T15:46:51.631Z,68.70
2018-01-15T15:49:19.082Z,69.20
2018-01-15T15:51:46.525Z,69.80
2018-01-15T15:54:13.974Z,70.00
2018-01-15T15:56:41.431Z,70.60
2018-01-15T15:59:08.886Z,70.90
2018-01-15T16:01:36.343Z,71.00
2018-01-15T16:04:03.814Z,70.90
2018-01-15T16:06:31.281Z,70.90
2018-01-15T16:08:58.758Z,71.20
2018-01-15T16:11:26.267Z,72.20
2018-01-15T16:13:53.742Z,72.40
2018-01-15T16:16:21.211Z,70.80
2018-01-15T16:18:48.731Z,71.30
2018-01-15T16:21:16.186Z,70.80
2018-01-15T16:23:43.714Z,69.70
2018-01-15T16:26:12.052Z,68.90
2018-01-15T16:28:39.658Z,68.80
2018-01-15T16:31:07.106Z,69.20
2018-01-15T16:33:34.564Z,69.30
2018-01-15T16:36:02.780Z,69.90
2018-01-15T16:38:31.002Z,68.80
2018-01-15T16:40:58.449Z,68.80
2018-01-15T16:43:25.903Z,69.10
2018-01-15T16:45:53.370Z,69.20
2018-01-15T16:48:20.810Z,69.60
2018-01-15T16:50:48.277Z,69.70
2018-01-15T16:53:15.727Z,69.40
2018-01-15T16:55:43.183Z,69.50
2018-01-15T16:58:10.653Z,70.40
2018-01-15T17:00:38.116Z,70.60
2018-01-15T17:03:05.542Z,68.70
2018-01-15T17:05:32.990Z,67.50
2018-01-15T17:08:00.446Z,67.30
2018-01-15T17:10:28.498Z,65.60
2018-01-15T17:12:55.946Z,65.40
2018-01-15T17:15:23.406Z,65.30
2018-01-15T17:17:50.847Z,65.00
2018-01-15T17:20:18.298Z,65.50
2018-01-15T17:22:45.746Z,65.20
2018-01-15T17:25:13.962Z,64.80
2018-01-15T17:27:41.422Z,64.90
2018-01-15T17:30:08.889Z,64.90
2018-01-15T17:32:36.334Z,65.00
2018-01-15T17:35:03.789Z,65.00
2018-01-15T17:37:31.242Z,64.90
2018-01-15T17:39:58.695Z,65.00
2018-01-15T17:42:26.177Z,65.00
2018-01-15T17:44:53.602Z,65.30
2018-01-15T17:47:21.058Z,65.80
2018-01-15T17:49:48.518Z,66.30
2018-01-15T17:52:15.970Z,66.30
2018-01-15T17:54:43.426Z,66.50
2018-01-15T17:57:10.878Z,66.80
2018-01-15T17:59:38.346Z,67.10
2018-01-15T18:02:05.795Z,67.20
2018-01-15T18:04:33.250Z,67.10
2018-01-15T18:07:00.707Z,67.20
2018-01-15T18:09:28.915Z,67.00
2018-01-15T18:11:56.371Z,66.90
2018-01-15T18:14:23.827Z,66.90
2018-01-15T18:16:51.290Z,67.20
2018-01-15T18:19:25.714Z,67.70
2018-01-15T18:21:53.168Z,66.90
2018-01-15T18:24:20.618Z,66.50
2018-01-15T18:26:48.076Z,66.10
2018-01-15T18:29:15.526Z,65.30
2018-01-15T18:31:42.987Z,65.20
2018-01-15T18:34:10.443Z,65.80
2018-01-15T18:36:37.907Z,65.70
2018-01-15T18:39:05.354Z,65.20
2018-01-15T18:41:32.810Z,65.70
2018-01-15T18:44:00.253Z,66.10
2018-01-15T18:46:27.703Z,66.30
2018-01-15T18:48:55.174Z,66.40
2018-01-15T18:51:22.636Z,66.40
2018-01-15T18:53:50.091Z,66.80
2018-01-15T18:56:17.556Z,67.10
2018-01-15T18:58:45.000Z,67.30
2018-01-15T19:01:12.450Z,67.30
2018-01-15T19:03:39.898Z,68.80
2018-01-15T19:06:07.358Z,69.40
2018-01-15T19:08:34.816Z,70.50
2018-01-15T19:11:02.467Z,70.80
2018-01-15T19:13:29.915Z,71.20
2018-01-15T19:15:57.359Z,70.30
2018-01-15T19:18:24.824Z,71.40
2018-01-15T19:20:52.285Z,71.20
2018-01-15T19:23:19.745Z,70.90
2018-01-15T19:25:47.190Z,71.70
2018-01-15T19:28:14.660Z,72.60
2018-01-15T19:30:42.150Z,72.50
2018-01-15T19:33:09.610Z,73.10
2018-01-15T19:35:42.870Z,73.60
2018-01-15T19:41:10.162Z,74.50
2018-01-15T19:43:43.202Z,76.30
2018-01-15T19:46:24.681Z,76.20
2018-01-15T19:49:09.487Z,77.20
2018-01-15T19:51:48.990Z,75.90
2018-01-15T19:54:22.058Z,75.60
2018-01-15T19:56:55.323Z,76.40
2018-01-15T19:59:32.348Z,77.10
2018-01-15T20:02:05.525Z,76.90
2018-01-15T20:04:38.593Z,77.20
2018-01-15T20:07:14.468Z,76.30
2018-01-15T20:09:47.713Z,76.30
2018-01-15T20:12:15.206Z,76.10
2018-01-15T20:14:42.658Z,76.10
2018-01-15T20:17:10.880Z,78.00
2018-01-15T20:19:38.331Z,77.90
2018-01-15T20:22:05.779Z,78.20
2018-01-15T20:24:33.279Z,79.10
2018-01-15T20:27:01.511Z,79.90
2018-01-15T20:29:29.132Z,80.70
2018-01-15T20:31:57.391Z,81.40
2018-01-15T20:34:48.733Z,81.40
2018-01-15T20:37:16.219Z,82.40
2018-01-15T20:39:43.722Z,82.90
2018-01-15T20:42:11.216Z,82.90
2018-01-15T20:44:38.723Z,82.70
2018-01-15T20:47:06.218Z,82.90
2018-01-15T20:49:45.877Z,83.00
2018-01-15T20:52:13.339Z,82.90
2018-01-15T20:54:40.891Z,82.20
2018-01-15T20:57:08.416Z,82.70
2018-01-15T20:59:36.031Z,82.20
2018-01-15T21:02:03.499Z,81.60
2018-01-15T21:04:31.014Z,82.10
2018-01-15T21:06:58.464Z,81.30
2018-01-15T21:09:25.972Z,81.30
2018-01-15T21:14:53.706Z,81.30
2018-01-15T21:17:22.027Z,82.90
2018-01-15T21:19:49.556Z,82.90
2018-01-15T21:22:17.110Z,82.50
2018-01-15T21:24:44.670Z,83.10
2018-01-15T21:27:12.201Z,82.30
2018-01-15T21:29:40.460Z,83.10
2018-01-15T21:32:07.933Z,82.40
2018-01-15T21:34:35.366Z,83.30
2018-01-15T21:37:02.866Z,83.50
2018-01-15T21:39:30.356Z,83.20
2018-01-15T21:41:57.851Z,83.60
2018-01-15T21:44:25.332Z,83.30
2018-01-15T21:46:53.583Z,82.40
2018-01-15T21:49:21.035Z,82.40
2018-01-15T21:51:48.491Z,81.50
2018-01-15T21:54:15.930Z,81.90
2018-01-15T21:56:44.990Z,81.40
2018-01-15T21:59:12.476Z,81.20
2018-01-15T22:01:39.986Z,81.70
2018-01-15T22:04:08.269Z,80.30
2018-01-15T22:06:36.638Z,80.20
2018-01-15T22:09:04.121Z,80.70
2018-01-15T22:11:31.560Z,80.00
2018-01-15T22:13:59.031Z,80.90
2018-01-15T22:16:26.484Z,80.20
2018-01-15T22:18:53.965Z,79.40
2018-01-15T22:21:21.403Z,80.20
2018-01-15T22:23:48.856Z,80.10
2018-01-15T22:26:16.298Z,79.30
2018-01-15T22:28:43.805Z,78.00
2018-01-15T22:31:11.239Z,78.10
2018-01-15T22:33:38.718Z,78.70
2018-01-15T22:36:06.165Z,77.00
2018-01-15T22:38:33.619Z,76.50
2018-01-15T22:41:01.062Z,76.30
2018-01-15T22:43:28.507Z,76.60
2018-01-15T22:45:55.963Z,76.60
2018-01-15T22:48:23.403Z,76.40
2018-01-15T22:50:50.854Z,76.80
2018-01-15T22:53:18.290Z,77.10
2018-01-15T22:55:46.506Z,76.70
2018-01-15T22:58:13.947Z,76.70
2018-01-15T23:00:41.396Z,76.40
2018-01-15T23:03:08.834Z,77.60
2018-01-15T23:05:37.052Z,78.70
2018-01-15T23:08:04.490Z,78.70
2018-01-15T23:10:31.936Z,79.00
2018-01-15T23:13:00.135Z,79.40
2018-01-15T23:15:27.594Z,79.20
2018-01-15T23:17:55.051Z,79.50
2018-01-15T23:20:22.613Z,79.00
2018-01-15T23:22:50.052Z,78.50
2018-01-15T23:25:17.495Z,79.70
2018-01-15T23:27:45.708Z,81.20
2018-01-15T23:30:13.150Z,81.20
2018-01-15T23:32:40.602Z,80.80
2018-01-15T23:35:08.046Z,80.70
2018-01-15T23:37:35.485Z,81.20
2018-01-15T23:40:03.689Z,82.20
2018-01-15T23:42:31.145Z,82.20
2018-01-15T23:44:58.602Z,82.30
2018-01-15T23:47:26.058Z,82.80
2018-01-15T23:49:53.507Z,82.00
2018-01-15T23:52:20.951Z,80.70
2018-01-15T23:54:48.386Z,80.10
2018-01-15T23:57:16.602Z,80.90
2018-01-15T23:59:44.036Z,80.90
